createdAt,value
2022-09-14T00:01:37.026Z,99288.97
2022-09-14T00:04:14.069Z,99291.56
2022-09-14T00:06:42.475Z,99290.31
2022-09-14T00:09:15.385Z,99297.88
2022-09-14T00:11:43.062Z,99299.34
2022-09-14T00:14:10.927Z,99301.78
2022-09-14T00:16:41.441Z,99298.28
2022-09-14T00:19:32.127Z,99294.81
2022-09-14T00:22:00.562Z,99287.78
2022-09-14T00:24:30.965Z,99296.47
2022-09-14T00:26:59.250Z,99289.38
2022-09-14T00:29:27.330Z,99292.94
2022-09-14T00:31:55.190Z,99280.78
2022-09-14T00:34:23.570Z,99278.53
2022-09-14T00:36:52.782Z,99293.63
2022-09-14T00:39:28.186Z,99291.63
2022-09-14T00:41:56.003Z,99280.06
2022-09-14T00:44:23.803Z,99290.50
2022-09-14T00:46:57.220Z,99284.38
2022-09-14T00:49:31.908Z,99282.28
2022-09-14T00:52:14.774Z,99288.13
2022-09-14T00:54:55.310Z,99291.38
2022-09-14T00:57:24.482Z,99285.59
2022-09-14T00:59:55.609Z,99289.69
2022-09-14T01:02:27.305Z,99278.22
2022-09-14T01:04:56.356Z,99296.91
2022-09-14T01:07:39.030Z,99293.16
2022-09-14T01:10:10.126Z,99284.63
2022-09-14T01:12:55.629Z,99292.31
2022-09-14T01:15:31.993Z,99288.34
2022-09-14T01:18:03.911Z,99288.09
2022-09-14T01:20:47.490Z,99292.03
2022-09-14T01:23:38.399Z,99293.25
2022-09-14T01:26:55.318Z,99289.50
2022-09-14T01:29:45.823Z,99295.50
2022-09-14T01:32:54.637Z,99289.03
2022-09-14T01:35:22.427Z,99295.88
2022-09-14T01:38:21.332Z,99282.16
2022-09-14T01:40:51.089Z,99288.34
2022-09-14T01:43:36.802Z,99286.00
2022-09-14T01:46:16.424Z,99289.78
2022-09-14T01:49:07.065Z,99274.09
2022-09-14T01:52:20.916Z,99269.88
2022-09-14T01:55:03.232Z,99265.22
2022-09-14T01:57:42.801Z,99263.38
2022-09-14T02:00:16.807Z,99265.38
2022-09-14T02:03:15.963Z,99258.19
2022-09-14T02:05:49.910Z,99256.09
2022-09-14T02:08:18.099Z,99261.41
2022-09-14T02:10:46.039Z,99264.97
2022-09-14T02:13:13.907Z,99261.75
2022-09-14T02:15:41.703Z,99255.66
2022-09-14T02:18:09.534Z,99247.03
2022-09-14T02:20:46.947Z,99261.19
2022-09-14T02:23:14.990Z,99253.88
2022-09-14T02:25:42.792Z,99255.78
2022-09-14T02:28:10.391Z,99265.13
2022-09-14T02:30:52.585Z,99259.91
2022-09-14T02:33:36.153Z,99260.56
2022-09-14T02:36:16.807Z,99252.72
2022-09-14T02:39:11.849Z,99250.81
2022-09-14T02:42:21.436Z,99257.19
2022-09-14T02:45:25.981Z,99256.91
2022-09-14T02:48:19.956Z,99257.19
2022-09-14T02:51:08.927Z,99256.44
2022-09-14T02:53:50.684Z,99259.16
2022-09-14T02:56:20.276Z,99253.72
2022-09-14T02:58:48.515Z,99261.13
2022-09-14T03:01:20.071Z,99259.84
2022-09-14T03:03:47.773Z,99255.03
2022-09-14T03:06:16.175Z,99257.81
2022-09-14T03:08:44.047Z,99259.31
2022-09-14T03:11:12.372Z,99255.88
2022-09-14T03:13:40.451Z,99258.50
2022-09-14T03:16:10.813Z,99264.91
2022-09-14T03:18:39.286Z,99264.81
2022-09-14T03:21:15.703Z,99260.94
2022-09-14T03:23:48.578Z,99264.81
2022-09-14T03:26:22.519Z,99265.97
2022-09-14T03:28:55.905Z,99266.06
2022-09-14T03:31:25.128Z,99264.38
2022-09-14T03:33:55.182Z,99264.16
2022-09-14T03:36:23.633Z,99261.53
2022-09-14T03:38:53.923Z,99259.31
2022-09-14T03:41:22.994Z,99264.75
2022-09-14T03:43:51.282Z,99252.94
2022-09-14T03:46:22.168Z,99257.97
2022-09-14T03:48:50.024Z,99253.22
2022-09-14T03:51:18.239Z,99249.94
2022-09-14T03:53:46.420Z,99237.38
2022-09-14T03:56:17.555Z,99243.13
2022-09-14T03:58:46.060Z,99236.75
2022-09-14T04:01:18.262Z,99243.72
2022-09-14T04:03:46.583Z,99238.44
2022-09-14T04:06:16.058Z,99238.91
2022-09-14T04:08:45.264Z,99233.38
2022-09-14T04:11:22.256Z,99249.78
2022-09-14T04:13:51.507Z,99247.59
2022-09-14T04:16:21.083Z,99247.22
2022-09-14T04:18:49.674Z,99247.41
2022-09-14T04:21:21.945Z,99248.72
2022-09-14T04:26:40.858Z,99247.44
2022-09-14T04:29:10.563Z,99247.03
2022-09-14T04:31:38.425Z,99249.97
2022-09-14T04:34:06.848Z,99256.91
2022-09-14T04:36:35.134Z,99247.34
2022-09-14T04:39:04.135Z,99245.66
2022-09-14T04:41:33.027Z,99249.13
2022-09-14T04:44:02.422Z,99248.28
2022-09-14T04:46:45.108Z,99252.94
2022-09-14T04:49:15.599Z,99248.78
2022-09-14T04:51:43.258Z,99249.13
2022-09-14T04:54:13.460Z,99247.56
2022-09-14T04:56:41.825Z,99256.22
2022-09-14T04:59:09.608Z,99252.41
2022-09-14T05:01:43.652Z,99250.69
2022-09-14T05:04:12.498Z,99246.28
2022-09-14T05:06:42.906Z,99243.13
2022-09-14T05:09:18.524Z,99245.94
2022-09-14T05:11:46.576Z,99239.84
2022-09-14T05:14:14.776Z,99237.31
2022-09-14T05:16:44.387Z,99246.63
2022-09-14T05:19:15.359Z,99252.22
2022-09-14T05:21:43.483Z,99248.53
2022-09-14T05:24:16.909Z,99253.56
2022-09-14T05:26:45.925Z,99251.13
2022-09-14T05:29:17.387Z,99245.16
2022-09-14T05:31:46.036Z,99254.88
2022-09-14T05:34:16.794Z,99241.13
2022-09-14T05:36:44.523Z,99247.97
2022-09-14T05:39:12.410Z,99244.91
2022-09-14T05:41:40.605Z,99241.53
2022-09-14T05:44:08.562Z,99249.44
2022-09-14T05:46:36.453Z,99237.72
2022-09-14T05:49:04.465Z,99247.06
2022-09-14T05:51:32.429Z,99250.13
2022-09-14T05:54:00.661Z,99251.63
2022-09-14T05:56:31.714Z,99250.13
2022-09-14T05:59:00.460Z,99248.59
2022-09-14T06:01:32.695Z,99245.19
2022-09-14T06:04:02.518Z,99240.91
2022-09-14T06:06:32.403Z,99242.72
2022-09-14T06:09:00.637Z,99242.22
2022-09-14T06:11:33.057Z,99236.94
2022-09-14T06:14:00.877Z,99242.53
2022-09-14T06:16:29.438Z,99246.53
2022-09-14T06:18:58.675Z,99244.50
2022-09-14T06:21:34.063Z,99246.19
2022-09-14T06:24:02.883Z,99250.75
2022-09-14T06:26:31.065Z,99250.72
2022-09-14T06:28:58.879Z,99244.94
2022-09-14T06:31:26.781Z,99251.88
2022-09-14T06:33:54.972Z,99253.03
2022-09-14T06:36:25.209Z,99254.09
2022-09-14T06:38:53.639Z,99256.75
2022-09-14T06:41:26.531Z,99260.16
2022-09-14T06:43:57.448Z,99256.00
2022-09-14T06:46:28.333Z,99261.25
2022-09-14T06:49:03.522Z,99260.06
2022-09-14T06:51:40.954Z,99259.47
2022-09-14T06:54:10.457Z,99271.81
2022-09-14T06:56:40.883Z,99273.94
2022-09-14T06:59:11.480Z,99272.38
2022-09-14T07:01:40.066Z,99281.94
2022-09-14T07:04:08.552Z,99278.56
2022-09-14T07:06:48.167Z,99278.56
2022-09-14T07:09:17.729Z,99290.22
2022-09-14T07:11:46.172Z,99295.47
2022-09-14T07:14:13.863Z,99289.91
2022-09-14T07:16:42.149Z,99288.97
2022-09-14T07:19:14.786Z,99291.50
2022-09-14T07:21:45.261Z,99297.13
2022-09-14T07:24:15.013Z,99298.56
2022-09-14T07:26:43.732Z,99304.91
2022-09-14T07:29:17.015Z,99300.84
2022-09-14T07:31:46.765Z,99304.88
2022-09-14T07:34:15.213Z,99313.47
2022-09-14T07:36:43.809Z,99311.25
2022-09-14T07:39:14.998Z,99313.81
2022-09-14T07:41:43.600Z,99311.31
2022-09-14T07:44:15.334Z,99306.00
2022-09-14T07:46:45.078Z,99307.00
2022-09-14T07:49:14.141Z,99292.56
2022-09-14T07:51:42.276Z,99297.78
2022-09-14T07:54:13.051Z,99298.50
2022-09-14T07:56:41.497Z,99288.13
2022-09-14T07:59:34.489Z,99294.16
2022-09-14T08:02:00.264Z,99289.25
2022-09-14T08:04:27.978Z,99300.53
2022-09-14T08:06:56.312Z,99298.03
2022-09-14T08:09:24.333Z,99303.44
2022-09-14T08:11:51.927Z,99290.25
2022-09-14T08:14:21.055Z,99297.06
2022-09-14T08:16:49.093Z,99304.72
2022-09-14T08:19:20.956Z,99312.06
2022-09-14T08:21:49.195Z,99310.84
2022-09-14T08:24:19.820Z,99307.84
2022-09-14T08:26:48.724Z,99297.56
2022-09-14T08:29:18.810Z,99308.91
2022-09-14T08:31:48.030Z,99300.22
2022-09-14T08:34:16.926Z,99309.34
2022-09-14T08:36:46.754Z,99308.47
2022-09-14T08:39:16.796Z,99311.53
2022-09-14T08:41:55.620Z,99317.59
2022-09-14T08:44:29.307Z,99298.03
2022-09-14T08:47:07.649Z,99301.28
2022-09-14T08:49:58.819Z,99299.47
2022-09-14T08:52:35.235Z,99299.06
2022-09-14T08:55:45.159Z,99290.09
2022-09-14T08:58:42.651Z,99297.19
2022-09-14T09:01:24.040Z,99294.13
2022-09-14T09:04:17.387Z,99291.97
2022-09-14T09:06:57.153Z,99300.16
2022-09-14T09:09:52.693Z,99289.28
2022-09-14T09:12:29.669Z,99297.78
2022-09-14T09:15:04.912Z,99298.75
2022-09-14T09:17:49.453Z,99295.81
2022-09-14T09:20:28.475Z,99305.47
2022-09-14T09:23:15.396Z,99292.91
2022-09-14T09:26:16.833Z,99290.69
2022-09-14T09:28:51.587Z,99292.78
2022-09-14T09:31:24.047Z,99286.28
2022-09-14T09:34:16.330Z,99280.28
2022-09-14T09:36:48.531Z,99287.44
2022-09-14T09:39:17.260Z,99291.13
2022-09-14T09:42:19.710Z,99283.59
2022-09-14T09:45:03.672Z,99278.63
2022-09-14T09:47:41.266Z,99284.44
2022-09-14T09:50:20.383Z,99285.72
2022-09-14T09:52:53.909Z,99286.84
2022-09-14T09:55:32.066Z,99286.09
2022-09-14T09:58:33.587Z,99277.50
2022-09-14T10:01:26.199Z,99283.16
2022-09-14T10:04:30.759Z,99290.06
2022-09-14T10:06:58.671Z,99282.25
2022-09-14T10:09:28.587Z,99287.75
2022-09-14T10:12:05.522Z,99282.59
2022-09-14T10:14:36.385Z,99283.84
2022-09-14T10:17:06.769Z,99283.28
2022-09-14T10:19:35.029Z,99298.47
2022-09-14T10:22:32.133Z,99285.44
2022-09-14T10:25:20.977Z,99271.28
2022-09-14T10:27:58.056Z,99281.50
2022-09-14T10:30:31.352Z,99295.47
2022-09-14T10:33:02.278Z,99287.81
2022-09-14T10:35:47.620Z,99290.16
2022-09-14T10:38:36.734Z,99285.41
2022-09-14T10:41:26.035Z,99293.53
2022-09-14T10:44:12.082Z,99286.47
2022-09-14T10:47:06.147Z,99287.16
2022-09-14T10:49:42.569Z,99290.59
2022-09-14T10:52:39.141Z,99288.78
2022-09-14T10:55:18.872Z,99287.81
2022-09-14T10:57:55.373Z,99277.78
2022-09-14T11:00:23.463Z,99273.75
2022-09-14T11:03:19.408Z,99280.63
2022-09-14T11:06:10.316Z,99282.50
2022-09-14T11:09:14.129Z,99273.47
2022-09-14T11:12:21.269Z,99274.56
2022-09-14T11:14:54.831Z,99267.00
2022-09-14T11:17:55.822Z,99268.97
2022-09-14T11:20:44.525Z,99268.97
2022-09-14T11:23:20.886Z,99268.97
2022-09-14T11:26:13.538Z,99280.41
2022-09-14T11:28:51.540Z,99274.41
2022-09-14T11:31:25.284Z,99275.38
2022-09-14T11:34:25.944Z,99276.06
2022-09-14T11:37:03.685Z,99267.56
2022-09-14T11:39:46.382Z,99267.38
2022-09-14T11:42:30.780Z,99264.53
2022-09-14T11:45:14.393Z,99264.69
2022-09-14T11:47:58.905Z,99266.19
2022-09-14T11:50:31.118Z,99262.66
2022-09-14T11:53:12.003Z,99256.34
2022-09-14T11:55:49.543Z,99257.94
2022-09-14T11:58:26.419Z,99252.94
2022-09-14T12:01:32.790Z,99257.19
2022-09-14T12:04:21.221Z,99251.16
2022-09-14T12:06:54.665Z,99262.56
2022-09-14T12:09:24.516Z,99254.75
2022-09-14T12:11:58.430Z,99255.22
2022-09-14T12:14:29.750Z,99268.72
2022-09-14T12:17:42.622Z,99263.84
2022-09-14T12:20:34.351Z,99258.84
2022-09-14T12:23:26.448Z,99244.81
2022-09-14T12:26:12.522Z,99254.22
2022-09-14T12:28:56.334Z,99264.84
2022-09-14T12:31:44.334Z,99256.50
2022-09-14T12:34:27.640Z,99253.78
2022-09-14T12:36:58.024Z,99249.56
2022-09-14T12:39:30.729Z,99251.47
2022-09-14T12:42:04.572Z,99249.72
2022-09-14T12:44:32.171Z,99255.44
2022-09-14T12:47:28.534Z,99257.09
2022-09-14T12:49:58.656Z,99254.50
2022-09-14T12:52:32.414Z,99244.13
2022-09-14T12:55:27.534Z,99254.44
2022-09-14T12:58:47.903Z,99256.47
2022-09-14T13:01:24.269Z,99254.03
2022-09-14T13:03:55.927Z,99249.16
2022-09-14T13:06:28.315Z,99246.13
2022-09-14T13:08:59.555Z,99241.78
2022-09-14T13:11:33.061Z,99243.16
2022-09-14T13:14:02.148Z,99244.31
2022-09-14T13:16:46.600Z,99238.09
2022-09-14T13:19:34.805Z,99238.53
2022-09-14T13:22:03.278Z,99235.69
2022-09-14T13:24:43.221Z,99239.28
2022-09-14T13:27:24.308Z,99234.94
2022-09-14T13:30:10.505Z,99237.22
2022-09-14T13:32:46.013Z,99232.56
2022-09-14T13:35:18.115Z,99237.03
2022-09-14T13:37:48.328Z,99227.72
2022-09-14T13:40:17.043Z,99227.25
2022-09-14T13:42:45.875Z,99220.34
2022-09-14T13:45:14.490Z,99226.44
2022-09-14T13:47:42.890Z,99218.56
2022-09-14T13:50:14.152Z,99212.66
2022-09-14T13:53:01.264Z,99201.63
2022-09-14T13:55:44.693Z,99221.06
2022-09-14T13:58:23.595Z,99212.19
2022-09-14T14:01:03.782Z,99206.66
2022-09-14T14:03:48.145Z,99209.25
2022-09-14T14:06:37.905Z,99209.56
2022-09-14T14:09:12.323Z,99207.63
2022-09-14T14:11:48.224Z,99211.94
2022-09-14T14:14:31.177Z,99203.66
2022-09-14T14:17:23.156Z,99198.66
2022-09-14T14:19:53.141Z,99197.03
2022-09-14T14:22:34.124Z,99201.06
2022-09-14T14:25:18.905Z,99201.34
2022-09-14T14:27:48.142Z,99199.66
2022-09-14T14:30:21.797Z,99201.41
2022-09-14T14:32:54.822Z,99190.72
2022-09-14T14:35:25.544Z,99197.22
2022-09-14T14:37:54.611Z,99195.44
2022-09-14T14:40:23.031Z,99191.66
2022-09-14T14:42:51.517Z,99201.44
2022-09-14T14:45:27.866Z,99206.47
2022-09-14T14:47:56.538Z,99202.25
2022-09-14T14:50:30.319Z,99195.75
2022-09-14T14:52:58.954Z,99203.78
2022-09-14T14:55:29.995Z,99202.84
2022-09-14T14:58:03.773Z,99194.31
2022-09-14T15:00:34.471Z,99199.09
2022-09-14T15:03:02.995Z,99193.66
2022-09-14T15:05:31.310Z,99185.97
2022-09-14T15:07:59.363Z,99196.72
2022-09-14T15:10:29.078Z,99190.03
2022-09-14T15:12:57.087Z,99184.72
2022-09-14T15:15:26.459Z,99186.13
2022-09-14T15:17:54.398Z,99185.84
2022-09-14T15:20:23.097Z,99167.94
2022-09-14T15:22:51.485Z,99179.41
2022-09-14T15:25:20.849Z,99181.50
2022-09-14T15:27:48.771Z,99173.66
2022-09-14T15:30:16.759Z,99171.00
2022-09-14T15:32:44.833Z,99162.72
2022-09-14T15:35:14.449Z,99168.72
2022-09-14T15:37:43.383Z,99167.88
2022-09-14T15:40:11.895Z,99170.41
2022-09-14T15:42:39.644Z,99171.47
2022-09-14T15:45:07.925Z,99174.94
2022-09-14T15:47:36.573Z,99165.53
2022-09-14T15:50:05.937Z,99168.88
2022-09-14T15:52:38.925Z,99168.13
2022-09-14T15:55:08.605Z,99163.72
2022-09-14T15:57:38.411Z,99166.94
2022-09-14T16:00:10.259Z,99158.69
2022-09-14T16:02:42.514Z,99142.66
2022-09-14T16:05:10.421Z,99157.84
2022-09-14T16:07:38.069Z,99154.34
2022-09-14T16:10:06.519Z,99149.38
2022-09-14T16:12:34.237Z,99164.28
2022-09-14T16:15:02.131Z,99158.22
2022-09-14T16:17:30.079Z,99154.03
2022-09-14T16:19:57.823Z,99150.19
2022-09-14T16:22:25.408Z,99154.66
2022-09-14T16:24:53.348Z,99145.63
2022-09-14T16:27:21.857Z,99141.31
2022-09-14T16:29:49.567Z,99144.50
2022-09-14T16:32:17.381Z,99143.56
2022-09-14T16:34:45.041Z,99143.31
2022-09-14T16:37:13.002Z,99143.69
2022-09-14T16:39:41.279Z,99149.56
2022-09-14T16:42:08.954Z,99156.81
2022-09-14T16:44:36.680Z,99153.94
2022-09-14T16:47:04.708Z,99146.09
2022-09-14T16:49:32.407Z,99145.22
2022-09-14T16:52:00.841Z,99141.75
2022-09-14T16:54:29.901Z,99149.78
2022-09-14T16:56:59.307Z,99146.97
2022-09-14T16:59:27.602Z,99155.72
2022-09-14T17:01:56.091Z,99153.28
2022-09-14T17:04:24.866Z,99148.84
2022-09-14T17:06:53.391Z,99150.59
2022-09-14T17:09:24.807Z,99151.06
2022-09-14T17:11:54.286Z,99145.59
2022-09-14T17:14:25.222Z,99154.31
2022-09-14T17:16:53.259Z,99144.94
2022-09-14T17:19:21.663Z,99151.38
2022-09-14T17:21:49.949Z,99157.09
2022-09-14T17:24:20.696Z,99156.88
2022-09-14T17:26:48.927Z,99157.75
2022-09-14T17:29:17.477Z,99163.47
2022-09-14T17:31:45.821Z,99157.19
2022-09-14T17:34:16.890Z,99152.34
2022-09-14T17:36:45.615Z,99145.34
2022-09-14T17:39:15.410Z,99140.69
2022-09-14T17:41:44.139Z,99153.22
2022-09-14T17:44:14.177Z,99165.25
2022-09-14T17:46:52.955Z,99158.91
2022-09-14T17:49:24.028Z,99150.72
2022-09-14T17:51:53.032Z,99153.88
2022-09-14T17:54:21.195Z,99153.25
2022-09-14T17:56:49.877Z,99153.97
2022-09-14T17:59:20.721Z,99156.19
2022-09-14T18:01:49.923Z,99158.75
2022-09-14T18:04:18.732Z,99155.81
2022-09-14T18:06:49.968Z,99148.13
2022-09-14T18:09:21.002Z,99148.88
2022-09-14T18:11:50.129Z,99153.06
2022-09-14T18:14:18.398Z,99142.28
2022-09-14T18:16:46.512Z,99148.19
2022-09-14T18:19:15.040Z,99152.41
2022-09-14T18:21:44.427Z,99147.66
2022-09-14T18:24:14.808Z,99146.09
2022-09-14T18:26:44.785Z,99151.94
2022-09-14T18:29:18.482Z,99151.31
2022-09-14T18:31:47.169Z,99145.31
2022-09-14T18:34:14.914Z,99147.19
2022-09-14T18:36:42.723Z,99148.56
2022-09-14T18:39:11.591Z,99148.88
2022-09-14T18:41:39.491Z,99149.72
2022-09-14T18:44:07.390Z,99154.03
2022-09-14T18:46:35.287Z,99154.25
2022-09-14T18:49:03.282Z,99158.00
2022-09-14T18:51:32.674Z,99156.13
2022-09-14T18:54:05.050Z,99152.34
2022-09-14T18:56:34.095Z,99152.34
2022-09-14T18:59:03.395Z,99150.66
2022-09-14T19:01:31.439Z,99144.47
2022-09-14T19:04:01.448Z,99147.28
2022-09-14T19:06:29.764Z,99138.66
2022-09-14T19:08:58.415Z,99138.13
2022-09-14T19:11:29.494Z,99144.31
2022-09-14T19:14:02.723Z,99135.50
2022-09-14T19:16:31.289Z,99142.84
2022-09-14T19:18:59.830Z,99137.59
2022-09-14T19:21:30.793Z,99128.94
2022-09-14T19:24:05.008Z,99115.47
2022-09-14T19:26:39.982Z,99117.16
2022-09-14T19:29:10.715Z,99118.38
2022-09-14T19:31:39.116Z,99117.84
2022-09-14T19:34:07.285Z,99114.81
2022-09-14T19:36:35.566Z,99118.75
2022-09-14T19:39:04.833Z,99120.00
2022-09-14T19:41:33.882Z,99125.94
2022-09-14T19:44:03.177Z,99125.34
2022-09-14T19:46:31.364Z,99124.31
2022-09-14T19:48:59.470Z,99134.16
2022-09-14T19:51:30.242Z,99130.59
2022-09-14T19:54:00.552Z,99120.84
2022-09-14T19:56:31.010Z,99120.19
2022-09-14T19:59:01.129Z,99124.72
2022-09-14T20:01:32.072Z,99124.81
2022-09-14T20:04:00.295Z,99128.38
2022-09-14T20:06:31.814Z,99099.88
2022-09-14T20:09:04.047Z,99115.78
2022-09-14T20:11:34.548Z,99118.56
2022-09-14T20:14:04.970Z,99110.78
2022-09-14T20:16:36.561Z,99113.44
2022-09-14T20:19:08.950Z,99117.22
2022-09-14T20:21:37.661Z,99104.81
2022-09-14T20:24:17.066Z,99109.59
2022-09-14T20:26:48.140Z,99112.22
2022-09-14T20:29:18.033Z,99115.78
2022-09-14T20:31:48.170Z,99105.88
2022-09-14T20:34:19.662Z,99103.97
2022-09-14T20:36:50.022Z,99112.81
2022-09-14T20:39:18.966Z,99111.13
2022-09-14T20:41:47.194Z,99107.63
2022-09-14T20:44:15.880Z,99104.34
2022-09-14T20:46:45.122Z,99095.72
2022-09-14T20:49:15.727Z,99095.50
2022-09-14T20:51:44.309Z,99096.84
2022-09-14T20:54:14.268Z,99100.41
2022-09-14T20:56:42.821Z,99083.31
2022-09-14T20:59:13.956Z,99086.53
2022-09-14T21:01:43.981Z,99100.03
2022-09-14T21:04:14.586Z,99110.34
2022-09-14T21:06:45.529Z,99101.91
2022-09-14T21:09:15.055Z,99089.91
2022-09-14T21:11:45.838Z,99088.03
2022-09-14T21:14:16.060Z,99099.28
2022-09-14T21:16:46.189Z,99104.78
2022-09-14T21:19:19.550Z,99094.63
2022-09-14T21:21:49.070Z,99086.84
2022-09-14T21:24:18.948Z,99088.72
2022-09-14T21:26:47.219Z,99086.38
2022-09-14T21:29:20.894Z,99086.63
2022-09-14T21:31:48.973Z,99080.09
2022-09-14T21:34:17.249Z,99079.34
2022-09-14T21:36:47.263Z,99084.69
2022-09-14T21:39:19.329Z,99092.28
2022-09-14T21:41:49.027Z,99083.66
2022-09-14T21:44:17.045Z,99085.53
2022-09-14T21:46:44.891Z,99087.69
2022-09-14T21:49:17.623Z,99086.63
2022-09-14T21:51:49.197Z,99085.78
2022-09-14T21:54:17.059Z,99082.84
2022-09-14T21:56:47.020Z,99080.75
2022-09-14T21:59:17.713Z,99076.03
2022-09-14T22:01:49.313Z,99078.66
2022-09-14T22:04:22.879Z,99074.66
2022-09-14T22:06:51.962Z,99079.59
2022-09-14T22:09:21.899Z,99080.59
2022-09-14T22:11:49.630Z,99085.19
2022-09-14T22:14:20.763Z,99077.63
2022-09-14T22:16:49.138Z,99071.81
2022-09-14T22:19:21.544Z,99064.13
2022-09-14T22:21:51.011Z,99064.56
2022-09-14T22:24:23.079Z,99058.56
2022-09-14T22:26:51.271Z,99049.22
2022-09-14T22:29:19.470Z,99049.00
2022-09-14T22:31:47.598Z,99039.53
2022-09-14T22:34:16.549Z,99051.75
2022-09-14T22:36:44.529Z,99043.66
2022-09-14T22:39:12.686Z,99034.91
2022-09-14T22:41:41.111Z,99032.19
2022-09-14T22:44:09.338Z,99032.28
2022-09-14T22:46:37.427Z,99022.72
2022-09-14T22:49:05.318Z,99021.03
2022-09-14T22:51:33.933Z,99023.25
2022-09-14T22:54:02.222Z,99020.84
2022-09-14T22:56:33.006Z,99013.81
2022-09-14T22:59:03.353Z,99018.53
2022-09-14T23:01:33.970Z,99009.28
2022-09-14T23:04:04.821Z,99010.31
2022-09-14T23:06:50.972Z,99002.97
2022-09-14T23:09:22.032Z,98996.66
2022-09-14T23:11:50.140Z,99003.78
2022-09-14T23:14:17.859Z,98994.31
2022-09-14T23:16:45.951Z,98995.38
2022-09-14T23:19:18.198Z,98998.97
2022-09-14T23:21:46.349Z,98993.19
2022-09-14T23:24:14.754Z,98989.72
2022-09-14T23:26:42.952Z,98976.47
2022-09-14T23:29:15.238Z,98989.09
2022-09-14T23:31:43.115Z,98986.16
2022-09-14T23:34:10.778Z,98987.84
2022-09-14T23:36:38.508Z,98980.91
2022-09-14T23:39:06.486Z,98979.53
2022-09-14T23:41:34.152Z,98978.38
2022-09-14T23:44:02.010Z,98981.63
2022-09-14T23:46:29.981Z,98976.06
2022-09-14T23:48:57.863Z,98976.66
2022-09-14T23:51:25.601Z,98966.59
2022-09-14T23:53:53.570Z,98976.56
2022-09-14T23:56:21.567Z,98983.41
2022-09-14T23:58:49.253Z,98975.44
